Strona główna
METAR-TAF:

METAR-TAF

Lotnisko :

Kirsch Municipal Airport

Sturgis, Michigan, Stany Zjednoczone

Szerokość geograficzna: 41-48-46N, Długość geograficzna: 085-26-21W, wysokość: 282 m

Aktualna obserwacja pogody

Raport powstał 26 minut temu, godzina 19:57 UTC
Wiatr 10 kt od północny wschód
Temperatura 28°C
Wilgotność 74%
Ciśnienie 1012 hPa
Widzialność: 16.1 km
Rozproszone chmury na wysokości 3600 ft
Rozproszone chmury na wysokości 4200 ft
Przerywane chmury na wysokości 6500 ft

METAR: KIRS 211957Z AUTO 05010KT 10SM SCT036 SCT042 BKN065 28/23 A2989 RMK AO2 T02840229

czas: 16:23 (20:23 UTC)


TAF: brakujący

Obserwacja i prognoza pogody dla ponad 4000 lotnisk (raport METAR i TAF).

Dostępne stacje oznaczono żółtymi i czerwonymi punktami na mapie.

Najedź kursorem aby zobaczyć nazwę stacji.

Kliknij aby zobaczyć obserwacje i prognozy pogody.

Aby zmienić mapę: kliknij na zielony przycisk z czarnym krzyżykiem, aby powiększyć; na zielony przycisk z myślnikiem, aby pomniejszyć; na zielone strzałki, aby przejść do map sąsiednich.


METAR-TAF: